Time;durP1;ratioP1;P1;durP2;ratioP2;P2;SDS_P1;SDS_P2;PMS_P1;PMS_P2;Temp;Humidity;BMP_temperature;BMP_pressure;BME280_temperature;BME280_humidity;BME280_pressure;Samples;Min_cycle;Max_cycle;Signal;HPM_P1;HPM_P2
2022/03/25 00:00:10;;;;;;;40.57;21.70;;;10.40;58.50;;;;;;5094364;28;20353;-73
2022/03/25 00:02:37;;;;;;;44.57;21.87;;;10.30;58.70;;;;;;5076145;28;20368;-73
2022/03/25 00:05:04;;;;;;;38.33;21.07;;;10.30;59.00;;;;;;5059953;28;20024;-74
2022/03/25 00:07:30;;;;;;;38.47;22.13;;;10.20;59.10;;;;;;5094399;28;20031;-73
2022/03/25 00:09:56;;;;;;;38.27;21.43;;;10.10;59.10;;;;;;5094222;28;20024;-73
2022/03/25 00:12:22;;;;;;;42.10;22.07;;;10.10;59.10;;;;;;5059544;28;20510;-73
2022/03/25 00:14:47;;;;;;;39.17;21.03;;;10.00;59.20;;;;;;5075843;28;20024;-74
2022/03/25 00:17:13;;;;;;;36.97;20.83;;;10.00;59.20;;;;;;5093935;28;20031;-74
2022/03/25 00:19:38;;;;;;;37.23;21.07;;;9.90;59.30;;;;;;5076196;28;20103;-73
2022/03/25 00:22:04;;;;;;;40.37;22.40;;;9.80;59.20;;;;;;5075753;28;20028;-73
2022/03/25 00:24:30;;;;;;;41.33;22.10;;;9.80;59.20;;;;;;5075805;28;20457;-73
2022/03/25 00:26:55;;;;;;;44.23;23.57;;;9.80;59.20;;;;;;5075774;28;20024;-74
2022/03/25 00:29:21;;;;;;;39.57;21.60;;;9.70;59.20;;;;;;5075655;28;20115;-73
2022/03/25 00:31:46;;;;;;;45.13;22.60;;;9.70;59.30;;;;;;5075707;28;20376;-73
2022/03/25 00:34:12;;;;;;;36.70;21.00;;;9.70;59.40;;;;;;5058980;28;20028;-73
2022/03/25 00:36:38;;;;;;;41.97;21.27;;;9.60;59.40;;;;;;5093558;28;20135;-73
2022/03/25 00:39:04;;;;;;;41.40;23.17;;;9.60;59.50;;;;;;5075692;28;20044;-73
2022/03/25 00:41:31;;;;;;;40.63;23.13;;;9.40;59.60;;;;;;5058971;28;20061;-73
2022/03/25 00:43:57;;;;;;;40.27;21.73;;;9.40;59.70;;;;;;5075732;28;20549;-73
2022/03/25 00:46:23;;;;;;;37.83;21.43;;;9.30;59.80;;;;;;5093823;28;20020;-73
2022/03/25 00:48:49;;;;;;;39.00;22.37;;;9.20;60.00;;;;;;5058782;28;20027;-73
2022/03/25 00:51:14;;;;;;;46.13;23.30;;;9.10;60.30;;;;;;5075023;28;20028;-80
2022/03/25 00:53:40;;;;;;;38.23;22.33;;;9.00;60.60;;;;;;5093342;28;20055;-80
2022/03/25 00:56:06;;;;;;;41.33;22.80;;;9.00;61.00;;;;;;5093268;28;20476;-80
2022/03/25 00:58:32;;;;;;;39.53;24.33;;;8.90;61.20;;;;;;5075211;28;20016;-80
2022/03/25 01:00:59;;;;;;;39.97;23.17;;;8.90;61.30;;;;;;5058607;28;20020;-80
2022/03/25 01:03:25;;;;;;;39.83;23.80;;;8.80;61.50;;;;;;5093505;28;20017;-80
2022/03/25 01:05:51;;;;;;;43.30;24.10;;;8.80;61.70;;;;;;5075852;28;20078;-80
2022/03/25 01:08:16;;;;;;;40.93;23.57;;;8.70;61.60;;;;;;5093473;28;20035;-80
2022/03/25 01:10:43;;;;;;;42.90;24.20;;;8.60;61.60;;;;;;5075832;28;20499;-80
2022/03/25 01:13:08;;;;;;;42.83;24.60;;;8.60;61.60;;;;;;5075427;28;20480;-80
2022/03/25 01:15:34;;;;;;;42.13;24.17;;;8.60;61.70;;;;;;5093204;28;20082;-80
2022/03/25 01:18:00;;;;;;;45.37;25.10;;;8.50;61.90;;;;;;5075487;28;20507;-80
2022/03/25 01:20:25;;;;;;;42.47;24.10;;;8.50;62.20;;;;;;5075405;28;20104;-80
2022/03/25 01:22:51;;;;;;;44.83;24.90;;;8.40;62.30;;;;;;5075215;28;20107;-73
2022/03/25 01:25:17;;;;;;;46.77;24.40;;;8.30;62.60;;;;;;5075164;28;20411;-73
2022/03/25 01:27:44;;;;;;;47.47;24.37;;;8.20;62.50;;;;;;5093283;28;20525;-73
2022/03/25 01:30:10;;;;;;;45.13;25.20;;;8.20;62.70;;;;;;5093165;28;20039;-73
2022/03/25 01:32:39;;;;;;;46.23;25.67;;;8.20;62.70;;;;;;5093290;28;20111;-74
2022/03/25 01:35:12;;;;;;;44.73;25.07;;;8.10;62.80;;;;;;5075706;28;20024;-73
2022/03/25 01:37:38;;;;;;;45.97;25.87;;;8.10;63.00;;;;;;5092830;28;20181;-73
2022/03/25 01:40:09;;;;;;;45.53;24.93;;;8.00;63.10;;;;;;5093182;28;20109;-73
2022/03/25 01:42:37;;;;;;;46.77;26.33;;;8.00;63.10;;;;;;5074962;28;20413;-73
2022/03/25 01:45:04;;;;;;;45.53;25.53;;;8.00;63.10;;;;;;5093197;28;20027;-73
2022/03/25 01:47:31;;;;;;;44.67;25.37;;;7.90;63.20;;;;;;5075104;28;20031;-73
2022/03/25 01:49:58;;;;;;;42.33;25.30;;;7.90;64.00;;;;;;5075266;28;20086;-73
2022/03/25 01:52:24;;;;;;;45.33;25.80;;;7.90;63.50;;;;;;5074723;28;20426;-73
2022/03/25 01:54:50;;;;;;;43.80;26.40;;;7.80;63.60;;;;;;5058173;28;20143;-73
2022/03/25 01:57:18;;;;;;;46.83;26.07;;;7.70;64.00;;;;;;5074490;28;20023;-73
2022/03/25 01:59:44;;;;;;;43.30;25.87;;;7.80;64.50;;;;;;5092738;28;20025;-73
2022/03/25 02:02:11;;;;;;;46.00;27.20;;;7.70;64.70;;;;;;5077577;28;20107;-73
2022/03/25 02:04:37;;;;;;;46.47;26.77;;;7.70;64.60;;;;;;5096543;28;20058;-73
2022/03/25 02:07:04;;;;;;;48.77;27.30;;;7.70;64.60;;;;;;5078391;28;20427;-73
2022/03/25 02:09:31;;;;;;;46.77;27.00;;;7.60;64.60;;;;;;5079170;28;20031;-73
2022/03/25 02:11:57;;;;;;;51.23;27.13;;;7.60;64.70;;;;;;5078509;28;20039;-73
2022/03/25 02:14:23;;;;;;;49.63;28.10;;;7.60;65.00;;;;;;5061701;28;20503;-73
2022/03/25 02:16:50;;;;;;;44.17;26.53;;;7.50;65.00;;;;;;5078143;28;20029;-73
2022/03/25 02:19:18;;;;;;;44.70;26.17;;;7.50;65.80;;;;;;5061435;28;20024;-74
2022/03/25 02:21:45;;;;;;;48.90;26.80;;;7.50;65.30;;;;;;5096205;28;20028;-73
2022/03/25 02:24:15;;;;;;;53.70;28.63;;;7.40;65.30;;;;;;5077858;28;20020;-71
2022/03/25 02:26:42;;;;;;;49.53;28.40;;;7.40;66.00;;;;;;5077782;28;20020;-73
2022/03/25 02:29:10;;;;;;;51.70;28.47;;;7.40;65.60;;;;;;5096176;28;20503;-74
2022/03/25 02:31:36;;;;;;;57.20;29.27;;;7.30;65.70;;;;;;5077721;28;20032;-74
2022/03/25 02:34:05;;;;;;;50.70;29.13;;;7.30;66.70;;;;;;5061185;28;20369;-73
2022/03/25 02:36:42;;;;;;;51.47;29.53;;;7.30;66.80;;;;;;5077548;28;20114;-73
2022/03/25 02:39:09;;;;;;;55.47;29.10;;;7.30;66.20;;;;;;5061574;28;20023;-73
2022/03/25 02:41:35;;;;;;;52.23;29.77;;;7.30;66.40;;;;;;5095720;28;20032;-74
2022/03/25 02:44:01;;;;;;;56.77;31.23;;;7.20;66.40;;;;;;5077372;28;20041;-73
2022/03/25 02:46:27;;;;;;;57.10;31.40;;;7.20;66.50;;;;;;5077300;28;20032;-73
2022/03/25 02:48:53;;;;;;;60.40;32.27;;;7.20;67.00;;;;;;5095562;28;20058;-73
2022/03/25 02:51:19;;;;;;;58.43;32.37;;;7.20;67.00;;;;;;5060678;28;20032;-73
2022/03/25 02:53:45;;;;;;;56.63;32.93;;;7.20;66.80;;;;;;5095315;28;20040;-73
2022/03/25 02:56:11;;;;;;;49.97;30.13;;;7.20;66.80;;;;;;5095127;28;20035;-73
2022/03/25 02:58:38;;;;;;;57.57;32.07;;;7.20;66.90;;;;;;5095113;28;20388;-73
2022/03/25 03:01:05;;;;;;;53.67;30.73;;;7.10;67.00;;;;;;5095320;28;20031;-73
2022/03/25 03:03:30;;;;;;;55.77;30.70;;;7.10;67.20;;;;;;5077102;28;20051;-73
2022/03/25 03:05:56;;;;;;;55.13;31.50;;;7.20;68.00;;;;;;5060417;28;20024;-73
2022/03/25 03:08:23;;;;;;;61.97;33.67;;;7.10;68.00;;;;;;5077074;28;20032;-73
2022/03/25 03:10:49;;;;;;;58.87;32.80;;;7.10;68.90;;;;;;5077693;28;20040;-73
2022/03/25 03:13:15;;;;;;;60.77;33.90;;;7.10;68.40;;;;;;5059945;28;20036;-73
2022/03/25 03:15:40;;;;;;;54.63;31.33;;;7.10;68.60;;;;;;5077143;28;20503;-73
2022/03/25 03:18:06;;;;;;;56.60;33.70;;;7.00;69.00;;;;;;5076935;28;20035;-73
2022/03/25 03:20:32;;;;;;;63.37;35.63;;;7.10;68.90;;;;;;5077063;28;20376;-72
2022/03/25 03:22:58;;;;;;;65.93;36.37;;;7.10;68.70;;;;;;5077233;28;20027;-73
2022/03/25 03:25:26;;;;;;;64.40;36.07;;;7.00;68.80;;;;;;5077061;28;20039;-73
2022/03/25 03:27:52;;;;;;;61.83;35.53;;;7.00;68.70;;;;;;5095134;28;20107;-73
2022/03/25 03:30:18;;;;;;;64.67;38.00;;;7.00;68.90;;;;;;5094972;28;20032;-73
2022/03/25 03:32:43;;;;;;;62.60;35.87;;;7.00;68.90;;;;;;5076912;28;20036;-74
2022/03/25 03:35:09;;;;;;;57.57;34.07;;;7.00;68.90;;;;;;5076710;28;20031;-73
2022/03/25 03:37:42;;;;;;;67.57;37.13;;;7.00;69.60;;;;;;5059983;28;20055;-73
2022/03/25 03:40:10;;;;;;;63.40;36.58;;;6.90;69.10;;;;;;5076826;28;20036;-73
2022/03/25 03:42:36;;;;;;;63.73;36.37;;;6.90;69.30;;;;;;5076863;28;20111;-73
2022/03/25 03:45:03;;;;;;;64.30;36.27;;;6.90;69.30;;;;;;5076673;28;20020;-73
2022/03/25 03:47:28;;;;;;;61.50;35.63;;;6.80;69.40;;;;;;5076530;28;20017;-73
2022/03/25 03:49:54;;;;;;;67.40;36.47;;;6.90;69.50;;;;;;5094794;28;20026;-73
2022/03/25 03:52:19;;;;;;;69.80;37.97;;;6.80;69.70;;;;;;5094835;28;20522;-73
2022/03/25 03:54:45;;;;;;;64.10;36.20;;;6.70;69.80;;;;;;5059892;28;20066;-73
2022/03/25 03:57:10;;;;;;;63.83;36.93;;;6.70;69.90;;;;;;5094598;28;20471;-74
2022/03/25 03:59:36;;;;;;;67.30;36.67;;;6.70;70.00;;;;;;5094659;28;20028;-73
2022/03/25 04:02:03;;;;;;;69.00;39.13;;;6.60;70.30;;;;;;5076517;28;20405;-74
2022/03/25 04:04:28;;;;;;;67.63;38.50;;;6.60;70.40;;;;;;5094434;28;20028;-74
2022/03/25 04:06:54;;;;;;;66.43;38.60;;;6.60;70.50;;;;;;5076423;28;20111;-72
2022/03/25 04:09:20;;;;;;;75.73;39.77;;;6.70;70.60;;;;;;5076322;28;20035;-73
2022/03/25 04:11:45;;;;;;;67.70;38.83;;;6.60;70.70;;;;;;5076073;28;20405;-73
2022/03/25 04:14:11;;;;;;;70.80;42.43;;;6.70;70.90;;;;;;5076029;28;20031;-73
2022/03/25 04:16:37;;;;;;;70.97;40.03;;;6.60;70.90;;;;;;5059306;28;20028;-73
2022/03/25 04:19:03;;;;;;;67.73;40.53;;;6.60;70.90;;;;;;5054957;28;20025;-73
2022/03/25 04:21:29;;;;;;;67.87;38.73;;;6.60;71.10;;;;;;5038703;28;20036;-73
2022/03/25 04:23:54;;;;;;;67.33;40.33;;;6.60;71.30;;;;;;5054831;28;20142;-73
2022/03/25 04:26:20;;;;;;;72.10;42.10;;;6.60;71.50;;;;;;5038118;28;20028;-73
2022/03/25 04:28:46;;;;;;;70.10;41.70;;;6.60;71.70;;;;;;5055661;28;20139;-73
2022/03/25 04:31:11;;;;;;;66.90;39.63;;;6.50;71.80;;;;;;5055798;28;20032;-72
2022/03/25 04:33:37;;;;;;;79.87;43.53;;;6.60;72.10;;;;;;5055312;28;20025;-73
2022/03/25 04:36:03;;;;;;;67.57;40.43;;;6.60;72.20;;;;;;5039036;28;20116;-72
2022/03/25 04:38:29;;;;;;;71.83;42.03;;;6.50;72.50;;;;;;5055606;28;20051;-73
2022/03/25 04:40:55;;;;;;;73.23;43.13;;;6.50;72.90;;;;;;5055486;28;20020;-73
2022/03/25 04:43:21;;;;;;;79.13;47.90;;;6.50;73.20;;;;;;5073515;28;20428;-73
2022/03/25 04:45:47;;;;;;;82.87;48.33;;;6.50;73.80;;;;;;5039078;28;20028;-73
2022/03/25 04:48:14;;;;;;;82.33;48.37;;;6.60;74.70;;;;;;5038905;28;20438;-73
2022/03/25 04:50:40;;;;;;;82.47;48.37;;;6.50;74.90;;;;;;5073454;28;20373;-73
2022/03/25 04:53:06;;;;;;;82.93;46.43;;;6.50;74.10;;;;;;5073441;28;20032;-73
2022/03/25 04:55:32;;;;;;;75.70;45.43;;;6.40;73.90;;;;;;5055465;28;20044;-73
2022/03/25 04:57:58;;;;;;;75.53;45.37;;;6.40;73.80;;;;;;5073635;28;20028;-73
2022/03/25 05:00:23;;;;;;;82.00;45.43;;;6.40;73.90;;;;;;5073117;28;20031;-73
2022/03/25 05:02:49;;;;;;;75.70;43.40;;;6.30;73.80;;;;;;5055437;28;20036;-74
2022/03/25 05:05:15;;;;;;;76.63;43.37;;;6.30;73.90;;;;;;5073171;28;20024;-74
2022/03/25 05:07:46;;;;;;;77.67;44.83;;;6.30;74.10;;;;;;5039017;28;20034;-74
2022/03/25 05:10:13;;;;;;;73.20;43.17;;;6.20;74.20;;;;;;5055131;28;20028;-73
2022/03/25 05:12:40;;;;;;;72.80;43.30;;;6.20;74.30;;;;;;5055347;28;20063;-73
2022/03/25 05:15:06;;;;;;;76.47;44.57;;;6.10;74.40;;;;;;5073041;28;20050;-73
2022/03/25 05:17:32;;;;;;;80.23;45.17;;;6.10;74.40;;;;;;5038606;28;20029;-73
2022/03/25 05:19:58;;;;;;;78.57;44.23;;;6.20;74.80;;;;;;5073158;28;20513;-73
2022/03/25 05:22:24;;;;;;;75.00;43.50;;;6.00;74.70;;;;;;5038669;28;20017;-72
2022/03/25 05:24:49;;;;;;;82.37;47.10;;;6.00;74.70;;;;;;5055161;28;20048;-72
2022/03/25 05:27:16;;;;;;;91.07;51.70;;;6.00;75.50;;;;;;5055208;28;20059;-73
2022/03/25 05:29:42;;;;;;;87.60;49.97;;;6.00;76.20;;;;;;5055039;28;20578;-72
2022/03/25 05:32:08;;;;;;;94.23;52.90;;;6.00;75.70;;;;;;5054765;28;20092;-72
2022/03/25 05:34:34;;;;;;;89.23;50.80;;;6.00;75.90;;;;;;5055306;28;20029;-73
2022/03/25 05:37:00;;;;;;;86.10;48.57;;;5.90;76.40;;;;;;5057685;28;20047;-72
2022/03/25 05:39:25;;;;;;;88.57;48.07;;;5.90;75.90;;;;;;5042468;28;20024;-72
2022/03/25 05:41:51;;;;;;;88.53;50.73;;;5.90;76.70;;;;;;5076944;28;20036;-74
2022/03/25 05:44:17;;;;;;;89.30;51.40;;;5.90;77.40;;;;;;5059107;28;20062;-72
2022/03/25 05:46:43;;;;;;;94.43;53.47;;;5.90;77.10;;;;;;5058647;28;20032;-72
2022/03/25 05:49:09;;;;;;;82.47;47.30;;;5.90;76.70;;;;;;5058936;28;20033;-72
2022/03/25 05:51:34;;;;;;;88.73;50.73;;;5.90;76.60;;;;;;5041994;28;20366;-73
2022/03/25 05:54:00;;;;;;;90.10;50.57;;;5.90;76.70;;;;;;5076397;28;20048;-72
2022/03/25 05:56:26;;;;;;;88.00;48.40;;;5.80;76.80;;;;;;5041744;28;20051;-72
2022/03/25 05:58:52;;;;;;;81.17;45.30;;;5.80;76.90;;;;;;5058442;28;20032;-72
2022/03/25 06:01:17;;;;;;;87.40;49.87;;;5.80;77.00;;;;;;5058769;28;20032;-73
2022/03/25 06:03:44;;;;;;;85.80;49.47;;;5.80;77.20;;;;;;5076343;28;20023;-73
2022/03/25 06:06:10;;;;;;;85.43;49.17;;;5.80;77.20;;;;;;5058568;28;20021;-73
2022/03/25 06:08:36;;;;;;;90.57;49.57;;;5.80;77.90;;;;;;5076347;28;20029;-73
2022/03/25 06:11:02;;;;;;;89.77;51.23;;;5.80;77.50;;;;;;5058342;28;20035;-72
2022/03/25 06:13:28;;;;;;;91.03;52.20;;;5.90;77.60;;;;;;5076372;28;20103;-72
2022/03/25 06:15:54;;;;;;;88.23;49.60;;;5.90;77.80;;;;;;5058154;28;20487;-72
2022/03/25 06:18:20;;;;;;;88.70;50.07;;;5.80;78.00;;;;;;5058108;28;20017;-73
2022/03/25 06:20:46;;;;;;;87.93;50.10;;;5.90;78.10;;;;;;5076099;28;20028;-72
2022/03/25 06:23:13;;;;;;;91.57;50.93;;;5.90;78.40;;;;;;5041646;28;20518;-72
2022/03/25 06:25:39;;;;;;;94.93;54.00;;;6.00;78.50;;;;;;5057657;28;20040;-72
2022/03/25 06:28:05;;;;;;;97.90;52.03;;;6.00;79.10;;;;;;5041383;28;20066;-73
2022/03/25 06:30:36;;;;;;;88.03;50.90;;;6.10;79.00;;;;;;5057981;28;20036;-74
2022/03/25 06:33:09;;;;;;;93.23;51.53;;;6.10;78.90;;;;;;5057890;28;20151;-73
2022/03/25 06:35:36;;;;;;;86.77;50.23;;;6.20;78.90;;;;;;5057871;28;20020;-73
2022/03/25 06:38:01;;;;;;;85.97;49.43;;;6.20;78.90;;;;;;5075863;28;20125;-74
2022/03/25 06:40:27;;;;;;;90.40;52.27;;;6.30;78.80;;;;;;5057797;28;20063;-71
2022/03/25 06:42:54;;;;;;;90.67;53.27;;;6.30;78.90;;;;;;5057685;28;20025;-74
2022/03/25 06:45:20;;;;;;;94.87;52.73;;;6.40;78.80;;;;;;5063232;28;20098;-73
2022/03/25 06:47:46;;;;;;;92.97;53.37;;;6.40;78.80;;;;;;5064933;28;20060;-71
2022/03/25 06:50:15;;;;;;;86.83;50.83;;;6.50;79.00;;;;;;5068968;28;20103;-71
2022/03/25 06:52:41;;;;;;;92.43;51.50;;;6.40;79.10;;;;;;5068511;28;20389;-71
2022/03/25 06:55:07;;;;;;;87.20;50.53;;;6.40;79.20;;;;;;5059248;28;20027;-75
2022/03/25 06:57:33;;;;;;;93.90;52.57;;;6.50;79.30;;;;;;5045690;28;20056;-73
2022/03/25 06:59:59;;;;;;;83.93;49.93;;;6.50;79.50;;;;;;5046536;28;20094;-72
2022/03/25 07:02:25;;;;;;;85.03;49.90;;;6.50;79.50;;;;;;5069368;28;20051;-72
2022/03/25 07:04:51;;;;;;;91.33;53.00;;;6.50;79.50;;;;;;5078961;28;20032;-72
2022/03/25 07:07:26;;;;;;;89.27;52.43;;;6.50;79.60;;;;;;5058237;28;20407;-72
2022/03/25 07:09:52;;;;;;;79.43;48.97;;;6.60;79.70;;;;;;5057582;28;20043;-72
2022/03/25 07:12:18;;;;;;;85.37;50.70;;;6.60;79.80;;;;;;5080366;28;20016;-72
2022/03/25 07:14:44;;;;;;;98.13;54.10;;;6.60;79.80;;;;;;5084358;28;20423;-72
2022/03/25 07:17:10;;;;;;;83.23;51.97;;;6.80;80.30;;;;;;5059455;28;20111;-72
2022/03/25 07:19:36;;;;;;;82.40;50.03;;;6.80;80.50;;;;;;5036949;28;20108;-73
2022/03/25 07:22:01;;;;;;;88.43;52.87;;;6.90;80.70;;;;;;5076980;28;20029;-72
2022/03/25 07:24:27;;;;;;;90.10;51.83;;;6.90;80.30;;;;;;5084487;28;20031;-72
2022/03/25 07:26:52;;;;;;;90.73;53.47;;;7.00;80.60;;;;;;5053600;28;20032;-72
2022/03/25 07:29:18;;;;;;;92.50;55.67;;;7.10;80.60;;;;;;5066881;28;20032;-72
2022/03/25 07:31:44;;;;;;;89.10;50.47;;;7.10;80.50;;;;;;5061601;28;20425;-72
2022/03/25 07:34:09;;;;;;;91.77;53.07;;;7.20;80.20;;;;;;5065521;28;20484;-73
2022/03/25 07:36:35;;;;;;;87.27;52.83;;;7.30;80.20;;;;;;5076998;28;20032;-72
2022/03/25 07:39:02;;;;;;;91.20;54.47;;;7.20;80.50;;;;;;5074220;28;20056;-73
2022/03/25 07:41:29;;;;;;;85.33;53.57;;;7.40;80.30;;;;;;5066965;28;20021;-72
2022/03/25 07:43:55;;;;;;;90.33;55.40;;;7.40;80.20;;;;;;5068669;28;20024;-72
2022/03/25 07:46:20;;;;;;;87.13;52.47;;;7.60;80.20;;;;;;5084354;28;20034;-72
2022/03/25 07:48:46;;;;;;;84.70;51.63;;;7.50;80.10;;;;;;5076469;28;20372;-72
2022/03/25 07:51:12;;;;;;;88.63;51.80;;;7.70;80.10;;;;;;5094616;28;20056;-72
2022/03/25 07:53:37;;;;;;;85.10;50.97;;;7.80;80.60;;;;;;5094359;28;20036;-72
2022/03/25 07:56:03;;;;;;;90.67;52.83;;;7.80;80.00;;;;;;5076121;28;20028;-73
2022/03/25 07:58:29;;;;;;;89.80;53.00;;;7.90;80.10;;;;;;5094008;28;20484;-72
2022/03/25 08:00:55;;;;;;;88.47;50.97;;;8.00;80.10;;;;;;5094764;28;20020;-73
2022/03/25 08:03:21;;;;;;;85.33;53.97;;;8.00;80.10;;;;;;5076360;28;20480;-73
2022/03/25 08:05:48;;;;;;;89.87;51.57;;;8.10;79.90;;;;;;5094799;28;20495;-72
2022/03/25 08:08:16;;;;;;;82.97;52.10;;;8.30;79.80;;;;;;5076278;28;20056;-73
2022/03/25 08:10:42;;;;;;;91.57;53.17;;;8.30;79.60;;;;;;5094313;28;20111;-72
2022/03/25 08:13:09;;;;;;;81.13;50.97;;;8.30;79.60;;;;;;5092234;28;20056;-73
2022/03/25 08:15:35;;;;;;;76.23;48.67;;;8.40;79.40;;;;;;5079320;28;20021;-73
2022/03/25 08:18:06;;;;;;;79.73;48.70;;;8.50;79.10;;;;;;5064706;28;20020;-73
2022/03/25 08:20:41;;;;;;;77.07;49.43;;;8.60;78.80;;;;;;5048816;28;20048;-73
2022/03/25 08:23:11;;;;;;;77.57;47.00;;;8.70;78.60;;;;;;5081731;28;20032;-72
2022/03/25 08:28:21;;;;;;;;;;;8.90;78.20;;;;;;5081915;28;20043;-73
2022/03/25 08:30:48;;;;;;;74.70;45.07;;;9.10;77.80;;;;;;5064268;28;20280;-72
2022/03/25 08:33:14;;;;;;;70.77;47.27;;;9.10;77.40;;;;;;5073435;28;20112;-73
2022/03/25 08:35:40;;;;;;;77.83;49.47;;;9.30;76.90;;;;;;5055356;28;20111;-73
2022/03/25 08:38:09;;;;;;;75.33;48.50;;;9.30;76.40;;;;;;5078554;28;20393;-73
2022/03/25 08:40:36;;;;;;;74.73;46.20;;;9.40;76.20;;;;;;5067775;28;20016;-73
2022/03/25 08:43:02;;;;;;;69.60;46.10;;;9.50;75.60;;;;;;5058238;28;20086;-73
2022/03/25 08:45:29;;;;;;;70.47;44.80;;;9.70;75.20;;;;;;5073481;28;20043;-73
2022/03/25 08:47:55;;;;;;;66.23;42.50;;;9.80;75.20;;;;;;5075574;28;20082;-73
2022/03/25 08:50:22;;;;;;;65.53;43.60;;;9.90;74.90;;;;;;5063776;28;20028;-73
2022/03/25 08:52:49;;;;;;;63.40;42.63;;;10.00;74.60;;;;;;5034264;28;20058;-73
2022/03/25 08:55:16;;;;;;;65.93;40.60;;;10.10;74.50;;;;;;5067875;28;20012;-73
2022/03/25 08:57:42;;;;;;;62.53;40.67;;;10.20;74.10;;;;;;5075914;28;20051;-72
2022/03/25 09:00:13;;;;;;;64.00;41.13;;;10.40;73.50;;;;;;5058593;28;20020;-73
2022/03/25 09:02:41;;;;;;;69.13;43.47;;;10.50;73.10;;;;;;5093372;28;20388;-73
2022/03/25 09:05:08;;;;;;;64.23;40.23;;;10.60;72.20;;;;;;5058775;28;20115;-73
2022/03/25 09:07:36;;;;;;;67.50;40.53;;;10.70;71.00;;;;;;5059162;28;20031;-74
2022/03/25 09:10:06;;;;;;;62.43;38.13;;;10.80;71.00;;;;;;5093252;28;20050;-73
2022/03/25 09:12:33;;;;;;;57.78;36.40;;;10.90;70.80;;;;;;5093261;28;20085;-73
2022/03/25 09:14:59;;;;;;;54.00;36.37;;;11.00;70.50;;;;;;5093661;28;20074;-73
2022/03/25 09:17:25;;;;;;;54.70;35.72;;;10.90;70.00;;;;;;5075229;28;20031;-74
2022/03/25 09:19:51;;;;;;;53.40;36.70;;;11.00;70.00;;;;;;5093423;28;20024;-73
2022/03/25 09:22:17;;;;;;;55.30;36.72;;;11.10;69.80;;;;;;5093515;28;20111;-73
2022/03/25 09:24:42;;;;;;;53.97;35.10;;;11.20;69.60;;;;;;5065423;28;20025;-73
2022/03/25 09:27:08;;;;;;;50.47;33.30;;;11.30;70.00;;;;;;5049400;28;20021;-73
2022/03/25 09:29:34;;;;;;;49.20;33.03;;;11.40;69.00;;;;;;5083109;28;20500;-73
2022/03/25 09:32:00;;;;;;;49.13;31.45;;;11.50;68.60;;;;;;5084052;28;20062;-73
2022/03/25 09:37:09;;;;;;;46.08;29.88;;;11.70;67.90;;;;;;5043437;28;20400;-73
2022/03/25 09:39:35;;;;;;;49.90;32.45;;;11.70;67.50;;;;;;5057028;28;20052;-74
2022/03/25 09:42:03;;;;;;;49.35;32.08;;;11.90;67.30;;;;;;5058251;28;20032;-74
2022/03/25 09:44:30;;;;;;;50.60;31.50;;;12.00;66.90;;;;;;5093285;28;20024;-74
2022/03/25 09:46:56;;;;;;;46.35;31.48;;;12.10;66.60;;;;;;5093065;28;20025;-73
2022/03/25 09:49:21;;;;;;;44.42;29.65;;;12.20;66.10;;;;;;5075092;28;20032;-74
2022/03/25 09:51:47;;;;;;;45.90;29.67;;;12.30;65.80;;;;;;5058224;28;20024;-73
2022/03/25 09:54:15;;;;;;;46.67;31.13;;;12.40;65.30;;;;;;5068082;28;20044;-73
2022/03/25 09:56:41;;;;;;;47.95;29.88;;;12.50;64.80;;;;;;5054991;28;20032;-73
2022/03/25 09:59:07;;;;;;;45.35;29.67;;;12.70;64.30;;;;;;5072774;28;20041;-73
2022/03/25 10:01:34;;;;;;;46.60;30.25;;;12.80;63.90;;;;;;5054710;28;20457;-73
2022/03/25 10:03:59;;;;;;;47.58;30.42;;;12.80;63.40;;;;;;5037663;28;20035;-73
2022/03/25 10:06:25;;;;;;;47.78;30.20;;;13.00;63.20;;;;;;5072791;28;20025;-75
2022/03/25 10:08:59;;;;;;;45.20;31.23;;;13.10;63.00;;;;;;5054822;28;20036;-75
2022/03/25 10:11:31;;;;;;;50.30;32.50;;;13.30;62.80;;;;;;5054675;28;20112;-74
2022/03/25 10:14:23;;;;;;;46.33;30.85;;;13.50;62.60;;;;;;5054901;28;20028;-74
2022/03/25 10:16:53;;;;;;;43.20;28.80;;;13.70;61.80;;;;;;5072519;28;20025;-72
2022/03/25 10:19:23;;;;;;;45.42;30.60;;;13.90;61.60;;;;;;5054536;28;20017;-74
2022/03/25 10:22:02;;;;;;;45.03;30.08;;;14.20;61.20;;;;;;5072859;28;20029;-73
2022/03/25 10:24:43;;;;;;;42.45;28.60;;;14.50;60.40;;;;;;5076018;28;20078;-73
2022/03/25 10:27:10;;;;;;;42.30;29.73;;;14.80;59.80;;;;;;5058129;28;20032;-74
2022/03/25 10:29:36;;;;;;;45.80;29.13;;;15.00;59.60;;;;;;5075828;28;20033;-73
2022/03/25 10:32:13;;;;;;;43.60;29.92;;;15.30;59.20;;;;;;5058468;28;20120;-74
2022/03/25 10:34:41;;;;;;;44.90;30.85;;;15.50;58.40;;;;;;5076011;28;20020;-73
2022/03/25 10:37:10;;;;;;;46.65;32.03;;;15.70;58.20;;;;;;5058018;28;20078;-74
2022/03/25 10:39:36;;;;;;;43.83;29.40;;;15.90;57.80;;;;;;5057402;28;20079;-74
2022/03/25 10:42:08;;;;;;;44.15;30.70;;;16.20;57.30;;;;;;5057905;28;20029;-73
2022/03/25 10:44:36;;;;;;;40.55;28.92;;;16.50;56.60;;;;;;5075669;28;20017;-73
2022/03/25 10:47:21;;;;;;;43.95;29.52;;;16.80;56.40;;;;;;5075716;28;20511;-74
2022/03/25 10:49:49;;;;;;;42.40;28.00;;;17.00;55.30;;;;;;5057280;28;20491;-74
2022/03/25 10:52:32;;;;;;;39.58;30.05;;;17.30;55.30;;;;;;5056952;28;20059;-74
2022/03/25 10:55:18;;;;;;;44.20;30.48;;;17.50;54.70;;;;;;5056922;28;20039;-73
2022/03/25 10:57:54;;;;;;;39.83;28.85;;;17.80;54.30;;;;;;5075546;28;20028;-74
2022/03/25 11:00:23;;;;;;;34.88;24.40;;;18.00;54.10;;;;;;5057365;28;20028;-74
2022/03/25 11:02:49;;;;;;;37.85;25.52;;;18.20;53.70;;;;;;5075254;28;20021;-74
2022/03/25 11:05:15;;;;;;;42.17;27.05;;;18.50;52.90;;;;;;5057709;28;20534;-74
2022/03/25 11:07:44;;;;;;;37.63;27.90;;;18.70;52.30;;;;;;5075247;28;20029;-74
2022/03/25 11:10:14;;;;;;;40.05;27.20;;;18.90;52.30;;;;;;5057102;28;20048;-74
2022/03/25 11:12:43;;;;;;;37.42;26.63;;;19.20;51.30;;;;;;5056996;28;20024;-74
2022/03/25 11:15:17;;;;;;;40.47;27.85;;;19.50;50.90;;;;;;5075065;28;20028;-74
2022/03/25 11:17:44;;;;;;;35.70;25.25;;;19.70;50.00;;;;;;5056969;28;20052;-74
2022/03/25 11:20:11;;;;;;;35.38;26.77;;;19.90;49.80;;;;;;5040551;28;20021;-74
2022/03/25 11:23:00;;;;;;;41.92;28.13;;;20.10;49.30;;;;;;5057122;28;20100;-74
2022/03/25 11:25:28;;;;;;;36.75;28.88;;;20.30;48.80;;;;;;5055874;28;20039;-75
2022/03/25 11:28:07;;;;;;;35.72;27.02;;;20.60;48.70;;;;;;5074525;28;20021;-75
2022/03/25 11:30:35;;;;;;;33.95;26.98;;;20.90;47.90;;;;;;5056701;28;20016;-75
2022/03/25 11:33:04;;;;;;;37.83;28.63;;;21.20;47.70;;;;;;5056760;28;20066;-75
2022/03/25 11:35:32;;;;;;;35.55;27.60;;;21.40;47.40;;;;;;5056523;28;20021;-75
2022/03/25 11:38:10;;;;;;;36.10;28.13;;;21.60;46.90;;;;;;5056941;28;20083;-75
2022/03/25 11:40:39;;;;;;;35.15;27.88;;;21.90;46.00;;;;;;5056596;28;20052;-75
2022/03/25 11:43:22;;;;;;;37.55;28.25;;;22.10;46.00;;;;;;5074478;28;20017;-75
2022/03/25 11:46:00;;;;;;;32.15;26.25;;;22.30;45.30;;;;;;5074764;28;20028;-76
2022/03/25 11:48:25;;;;;;;36.63;26.42;;;22.60;45.00;;;;;;5074388;28;20028;-75
2022/03/25 11:50:52;;;;;;;35.55;27.60;;;22.70;45.00;;;;;;5056538;28;20040;-74
2022/03/25 11:53:24;;;;;;;34.92;27.73;;;22.90;44.70;;;;;;5040061;28;20137;-73
2022/03/25 11:55:55;;;;;;;32.90;25.65;;;23.10;44.10;;;;;;5056269;28;20028;-79
2022/03/25 11:58:22;;;;;;;31.80;25.08;;;23.40;43.50;;;;;;5056300;28;20031;-79
2022/03/25 12:00:51;;;;;;;28.85;23.27;;;23.60;43.30;;;;;;5056197;28;20067;-79
2022/03/25 12:03:17;;;;;;;28.73;22.35;;;23.80;42.80;;;;;;5039855;28;20029;-80
2022/03/25 12:06:01;;;;;;;27.25;22.90;;;24.00;42.90;;;;;;5056001;28;20111;-80
2022/03/25 12:08:28;;;;;;;27.85;22.75;;;24.20;41.40;;;;;;5073644;28;20043;-79
2022/03/25 12:10:55;;;;;;;29.85;23.35;;;24.50;41.50;;;;;;5074082;28;20420;-83
2022/03/25 12:13:21;;;;;;;28.88;23.73;;;24.80;41.10;;;;;;5074639;28;20028;-81
2022/03/25 12:15:54;;;;;;;26.20;22.60;;;24.90;40.70;;;;;;5039517;28;20435;-81
2022/03/25 12:18:39;;;;;;;26.85;23.02;;;25.00;40.30;;;;;;5075456;28;20385;-81
2022/03/25 12:21:11;;;;;;;32.17;23.50;;;25.20;39.60;;;;;;5094368;28;20373;-80
2022/03/25 12:23:38;;;;;;;30.30;24.05;;;25.40;40.30;;;;;;5093637;28;20028;-79
2022/03/25 12:26:04;;;;;;;27.58;21.33;;;25.50;39.50;;;;;;5058939;28;20400;-79
2022/03/25 12:28:31;;;;;;;30.92;24.25;;;25.70;39.20;;;;;;5059460;28;20028;-79
2022/03/25 12:31:03;;;;;;;32.60;24.20;;;25.80;38.80;;;;;;5094030;28;20165;-79
2022/03/25 12:33:30;;;;;;;35.92;25.83;;;25.90;38.60;;;;;;5093652;28;20103;-79
2022/03/25 12:35:58;;;;;;;33.10;25.17;;;26.00;38.60;;;;;;5093818;28;20031;-79
2022/03/25 12:38:25;;;;;;;30.30;24.23;;;26.10;38.40;;;;;;5075366;28;20499;-79